Time;durP1;ratioP1;P1;durP2;ratioP2;P2;SDS_P1;SDS_P2;PMS_P1;PMS_P2;Temp;Humidity;BMP_temperature;BMP_pressure;BME280_temperature;BME280_humidity;BME280_pressure;Samples;Min_cycle;Max_cycle;Signal;HPM_P1;HPM_P2
2022/06/12 00:00:48;;;;;;;8.13;3.20;;;;;;;17.53;58.28;102205.72;5085650;28;20068;-64
2022/06/12 00:03:16;;;;;;;8.82;3.47;;;;;;;17.53;58.53;102211.31;5064159;28;20464;-64
2022/06/12 00:05:47;;;;;;;12.25;3.63;;;;;;;17.56;58.53;102210.75;5069812;28;20048;-64
2022/06/12 00:08:14;;;;;;;8.77;3.83;;;;;;;17.51;58.43;102201.47;5091158;28;20442;-64
2022/06/12 00:10:41;;;;;;;8.23;4.05;;;;;;;17.51;58.87;102207.94;5088793;28;20073;-64
2022/06/12 00:13:09;;;;;;;12.70;4.35;;;;;;;17.49;58.85;102209.28;5101828;28;20115;-64
2022/06/12 00:15:34;;;;;;;9.98;5.13;;;;;;;17.46;58.96;102215.47;5080845;28;20032;-64
2022/06/12 00:18:00;;;;;;;11.55;6.05;;;;;;;17.38;58.95;102214.00;5088185;28;20097;-64
2022/06/12 00:20:25;;;;;;;13.77;5.60;;;;;;;17.41;58.69;102203.06;5085832;28;20455;-64
2022/06/12 00:22:53;;;;;;;11.98;6.07;;;;;;;17.38;59.07;102198.00;5106299;28;20024;-64
2022/06/12 00:25:22;;;;;;;10.93;5.18;;;;;;;17.41;58.85;102202.22;5096963;28;20028;-64
2022/06/12 00:27:47;;;;;;;12.75;5.63;;;;;;;17.37;58.84;102207.53;5093629;28;20039;-64
2022/06/12 00:30:15;;;;;;;11.07;4.97;;;;;;;17.33;58.79;102203.56;5072711;28;20032;-64
2022/06/12 00:32:41;;;;;;;13.07;5.63;;;;;;;17.27;58.88;102204.59;5076019;28;20605;-64
2022/06/12 00:35:08;;;;;;;10.60;5.43;;;;;;;17.25;58.75;102201.25;5077658;28;20032;-64
2022/06/12 00:37:36;;;;;;;9.73;5.75;;;;;;;17.25;59.21;102197.56;5072364;28;20035;-64
2022/06/12 00:40:03;;;;;;;11.88;5.75;;;;;;;17.22;58.99;102198.13;5071898;28;20036;-64
2022/06/12 00:42:38;;;;;;;11.70;6.18;;;;;;;17.11;58.85;102195.19;5078301;28;20144;-64
2022/06/12 00:45:29;;;;;;;12.07;5.53;;;;;;;17.28;58.50;102202.66;5091442;28;20077;-64
2022/06/12 00:47:59;;;;;;;11.60;5.65;;;;;;;17.15;58.84;102198.31;5075937;28;20035;-64
2022/06/12 00:50:25;;;;;;;11.48;6.18;;;;;;;17.16;58.64;102200.84;5086210;28;20024;-64
2022/06/12 00:52:53;;;;;;;17.50;6.25;;;;;;;17.04;59.01;102202.13;5090570;28;20063;-64
2022/06/12 00:55:43;;;;;;;12.70;6.25;;;;;;;17.10;58.76;102212.31;5096204;28;20028;-64
2022/06/12 00:58:15;;;;;;;10.38;5.50;;;;;;;16.95;59.07;102207.34;5072866;28;20068;-64
2022/06/12 01:00:41;;;;;;;11.85;5.30;;;;;;;17.00;59.14;102206.56;5080200;28;20028;-63
2022/06/12 01:03:07;;;;;;;14.55;5.40;;;;;;;16.94;59.36;102208.47;5082945;28;20032;-64
2022/06/12 01:08:19;;;;;;;12.23;5.65;;;;;;;16.89;59.27;102206.44;5071661;28;20051;-64
2022/06/12 01:10:52;;;;;;;8.65;4.75;;;;;;;16.84;59.52;102200.78;5072162;28;20028;-64
2022/06/12 01:13:36;;;;;;;9.15;5.10;;;;;;;16.92;59.03;102203.13;5070968;28;20032;-64
2022/06/12 01:16:09;;;;;;;9.63;5.18;;;;;;;16.80;59.33;102205.22;5096322;28;20665;-64
2022/06/12 01:18:41;;;;;;;8.88;5.22;;;;;;;16.77;59.54;102205.72;5074896;28;20032;-64
2022/06/12 01:21:51;;;;;;;9.37;5.27;;;;;;;16.84;59.08;102209.19;5075561;28;20029;-64
2022/06/12 01:24:19;;;;;;;11.93;5.90;;;;;;;16.74;59.32;102205.41;5088634;28;20028;-64
2022/06/12 01:27:21;;;;;;;13.48;5.18;;;;;;;16.80;59.17;102209.97;5092406;28;20036;-64
2022/06/12 01:29:59;;;;;;;11.27;5.32;;;;;;;16.64;59.25;102203.31;5087294;28;20535;-64
2022/06/12 01:32:37;;;;;;;11.90;4.80;;;;;;;16.64;59.06;102206.09;5080721;28;20456;-64
2022/06/12 01:35:08;;;;;;;11.07;4.03;;;;;;;16.64;59.14;102203.31;5094467;28;20039;-64
2022/06/12 01:37:59;;;;;;;12.05;4.35;;;;;;;16.69;58.82;102200.56;5078287;28;20040;-64
2022/06/12 01:40:50;;;;;;;9.60;3.95;;;;;;;16.62;59.14;102199.91;5091426;28;20039;-64
2022/06/12 01:43:37;;;;;;;7.22;3.67;;;;;;;16.58;59.23;102193.97;5084732;28;20024;-64
2022/06/12 01:46:22;;;;;;;11.13;4.53;;;;;;;16.49;59.24;102192.75;5090222;28;20032;-64
2022/06/12 01:49:05;;;;;;;10.27;4.68;;;;;;;16.48;59.24;102193.00;5085349;28;20027;-64
2022/06/12 01:51:56;;;;;;;9.32;4.22;;;;;;;16.44;59.24;102193.53;5090722;28;20394;-64
2022/06/12 01:54:37;;;;;;;7.47;4.10;;;;;;;16.34;59.37;102195.34;5088117;28;20026;-64
2022/06/12 01:57:10;;;;;;;8.07;4.22;;;;;;;16.31;59.23;102199.53;5096292;28;20023;-63
2022/06/12 02:00:02;;;;;;;10.40;4.47;;;;;;;16.36;59.01;102185.56;5082128;28;20029;-64
2022/06/12 02:02:46;;;;;;;10.00;4.57;;;;;;;16.26;59.28;102191.03;5088511;28;20038;-64
2022/06/12 02:05:22;;;;;;;10.50;3.85;;;;;;;16.24;59.22;102193.25;5089504;28;20078;-64
2022/06/12 02:08:00;;;;;;;8.75;3.63;;;;;;;16.19;59.53;102195.97;5093654;28;20520;-64
2022/06/12 02:13:11;;;;;;;8.65;3.58;;;;;;;16.32;58.92;102189.16;5080351;28;20545;-64
2022/06/12 02:13:48;;;;;;;9.27;3.65;;;;;;;16.16;59.07;102202.09;5085098;28;20050;-64
2022/06/12 02:16:19;;;;;;;12.77;4.15;;;;;;;16.20;59.16;102200.47;5093194;28;20027;-64
2022/06/12 02:18:50;;;;;;;11.77;4.30;;;;;;;16.12;59.03;102206.53;5090707;28;20028;-64
2022/06/12 02:21:37;;;;;;;9.88;3.42;;;;;;;16.18;58.94;102205.47;5073458;28;20055;-64
2022/06/12 02:24:14;;;;;;;9.43;4.00;;;;;;;16.09;59.07;102209.84;5083878;28;20030;-64
2022/06/12 02:27:00;;;;;;;7.97;3.47;;;;;;;16.12;59.25;102203.72;5091598;28;20036;-63
2022/06/12 02:30:01;;;;;;;11.05;3.47;;;;;;;16.13;59.14;102209.06;5100974;28;20059;-63
2022/06/12 02:32:38;;;;;;;9.82;3.45;;;;;;;16.03;59.26;102199.66;5073739;28;20043;-63
2022/06/12 02:35:20;;;;;;;10.68;3.97;;;;;;;16.00;59.59;102198.22;5074935;28;20021;-64
2022/06/12 02:37:59;;;;;;;9.00;3.83;;;;;;;16.02;59.46;102192.34;5076126;28;20033;-63
2022/06/12 02:40:35;;;;;;;9.57;3.92;;;;;;;15.95;59.55;102190.59;5092794;28;20020;-63
2022/06/12 02:43:06;;;;;;;7.65;3.42;;;;;;;15.88;59.81;102195.53;5091662;27;20039;-63
2022/06/12 02:45:40;;;;;;;11.07;3.50;;;;;;;15.92;59.71;102190.25;5096468;28;20085;-64
2022/06/12 02:48:07;;;;;;;10.88;3.70;;;;;;;15.95;59.64;102192.53;5098012;28;20029;-64
2022/06/12 02:50:41;;;;;;;8.90;3.67;;;;;;;15.93;59.70;102190.00;5093325;28;20512;-63
2022/06/12 02:53:23;;;;;;;10.65;4.10;;;;;;;15.88;59.89;102184.31;5095397;28;20036;-64
2022/06/12 02:56:05;;;;;;;10.00;4.00;;;;;;;15.93;59.69;102186.34;5085077;28;20039;-64
2022/06/12 02:58:42;;;;;;;7.82;3.58;;;;;;;15.89;59.93;102180.41;5083470;28;20024;-64
2022/06/12 03:01:13;;;;;;;8.82;3.58;;;;;;;15.93;59.72;102184.41;5073566;28;20059;-64
2022/06/12 03:04:14;;;;;;;12.00;3.35;;;;;;;16.06;59.26;102180.38;5074350;28;20446;-63
2022/06/12 03:06:40;;;;;;;11.77;3.90;;;;;;;15.83;59.90;102175.81;5059043;28;20471;-64
2022/06/12 03:09:06;;;;;;;12.30;3.38;;;;;;;15.85;60.01;102179.22;5098687;28;20048;-64
2022/06/12 03:11:39;;;;;;;13.52;3.80;;;;;;;15.86;60.04;102177.28;5084142;28;20031;-64
2022/06/12 03:14:14;;;;;;;10.70;4.22;;;;;;;15.89;59.99;102190.78;5091848;28;20028;-63
2022/06/12 03:16:42;;;;;;;9.52;3.75;;;;;;;15.89;60.01;102190.78;5076079;28;20032;-63
2022/06/12 03:19:18;;;;;;;10.93;4.28;;;;;;;15.82;60.27;102190.94;5074474;28;20056;-63
2022/06/12 03:22:18;;;;;;;12.48;4.03;;;;;;;15.95;59.98;102196.19;5073745;28;20029;-63
2022/06/12 03:24:57;;;;;;;12.07;4.30;;;;;;;15.90;59.94;102193.31;5099323;28;20032;-63
2022/06/12 03:27:25;;;;;;;9.55;4.18;;;;;;;15.87;60.40;102193.81;5081814;28;20028;-63
2022/06/12 03:30:00;;;;;;;10.65;4.32;;;;;;;15.92;60.23;102184.66;5078789;28;20073;-64
2022/06/12 03:32:25;;;;;;;10.48;4.53;;;;;;;15.88;60.61;102194.69;5074324;28;21243;-64
2022/06/12 03:35:05;;;;;;;13.68;4.88;;;;;;;15.93;60.07;102191.94;5080843;28;20165;-63
2022/06/12 03:37:59;;;;;;;12.52;4.63;;;;;;;15.98;59.95;102193.97;5085511;28;20360;-63
2022/06/12 03:40:43;;;;;;;14.18;4.53;;;;;;;15.92;60.41;102193.91;5074851;28;20058;-64
2022/06/12 03:43:28;;;;;;;13.93;4.53;;;;;;;15.97;60.31;102193.13;5081163;28;20127;-63
2022/06/12 03:46:08;;;;;;;13.88;4.82;;;;;;;15.88;60.67;102205.88;5095858;28;20478;-64
2022/06/12 03:48:48;;;;;;;9.70;4.47;;;;;;;15.91;60.31;102197.78;5080723;28;20106;-63
2022/06/12 03:51:23;;;;;;;13.15;4.68;;;;;;;15.93;60.30;102198.41;5087679;28;20489;-63
2022/06/12 03:53:59;;;;;;;15.68;4.50;;;;;;;15.92;60.34;102202.31;5084141;28;21014;-64
2022/06/12 03:59:40;;;;;;;8.00;4.15;;;;;;;15.95;60.02;102200.94;5096698;28;20054;-64
2022/06/12 04:02:10;;;;;;;8.95;4.35;;;;;;;15.87;60.06;102196.59;5095705;28;20038;-64
2022/06/12 04:04:39;;;;;;;11.15;4.20;;;;;;;15.82;60.17;102199.34;5098728;28;20066;-63
2022/06/12 04:07:08;;;;;;;12.15;4.57;;;;;;;15.86;60.22;102202.47;5087062;28;20142;-63
2022/06/12 04:09:38;;;;;;;13.40;4.60;;;;;;;15.83;59.96;102198.22;5100466;28;20043;-64
2022/06/12 04:12:19;;;;;;;9.88;4.18;;;;;;;15.82;59.86;102198.50;5086162;28;20067;-63
2022/06/12 04:14:56;;;;;;;15.20;4.47;;;;;;;15.83;59.57;102195.41;5093288;28;20043;-63
2022/06/12 04:17:22;;;;;;;9.90;4.25;;;;;;;15.80;59.44;102204.34;5091532;28;20482;-64
2022/06/12 04:20:00;;;;;;;10.20;4.22;;;;;;;15.74;59.52;102196.97;5088447;28;20073;-64
2022/06/12 04:22:43;;;;;;;11.98;4.22;;;;;;;15.81;59.39;102200.44;5099627;28;20031;-64
2022/06/12 04:25:50;;;;;;;8.18;3.88;;;;;;;15.80;59.24;102203.47;5096503;28;20088;-64
2022/06/12 04:28:36;;;;;;;8.75;3.80;;;;;;;15.78;59.38;102200.09;5097146;28;20197;-64
2022/06/12 04:31:05;;;;;;;10.52;4.28;;;;;;;15.70;59.46;102204.19;5101882;28;20028;-64
2022/06/12 04:34:05;;;;;;;12.80;4.63;;;;;;;15.83;59.05;102209.41;5088955;28;20086;-64
2022/06/12 04:36:31;;;;;;;10.65;4.00;;;;;;;15.80;58.76;102215.56;5081774;28;20031;-63
2022/06/12 04:38:56;;;;;;;9.93;4.18;;;;;;;15.73;59.33;102214.88;5072580;28;20028;-64
2022/06/12 04:41:26;;;;;;;9.38;4.22;;;;;;;15.76;58.97;102216.28;5087894;28;20027;-63
2022/06/12 04:43:51;;;;;;;12.20;4.30;;;;;;;15.81;58.64;102220.03;5075926;28;20052;-64
2022/06/12 04:46:21;;;;;;;11.70;3.88;;;;;;;15.79;58.62;102216.63;5071874;28;20122;-64
2022/06/12 04:48:50;;;;;;;9.30;3.88;;;;;;;15.88;58.59;102217.09;5084930;28;20016;-64
2022/06/12 04:51:16;;;;;;;11.27;3.97;;;;;;;15.84;58.58;102222.34;5094327;28;20098;-64
2022/06/12 04:53:43;;;;;;;11.18;3.75;;;;;;;15.94;58.26;102216.03;5089972;28;20475;-63
2022/06/12 04:56:12;;;;;;;13.32;4.45;;;;;;;15.93;58.20;102214.34;5090823;28;20028;-64
2022/06/12 04:58:41;;;;;;;12.10;4.00;;;;;;;16.00;57.85;102220.63;5090712;28;20024;-64
2022/06/12 05:01:07;;;;;;;8.57;3.45;;;;;;;15.91;58.27;102213.75;5096759;28;20046;-64
2022/06/12 05:03:33;;;;;;;10.43;3.92;;;;;;;16.03;57.97;102211.69;5087688;28;20024;-63
2022/06/12 05:05:58;;;;;;;12.30;4.35;;;;;;;16.04;58.26;102209.75;5085675;28;20097;-64
2022/06/12 05:08:25;;;;;;;12.70;3.85;;;;;;;16.07;58.04;102209.22;5087801;28;20861;-63
2022/06/12 05:10:51;;;;;;;12.70;4.00;;;;;;;16.13;58.06;102197.00;5076807;28;20024;-64
2022/06/12 05:13:19;;;;;;;11.25;3.58;;;;;;;16.17;58.19;102203.78;5082267;28;20123;-63
2022/06/12 05:15:45;;;;;;;10.65;3.80;;;;;;;16.21;57.93;102210.56;5076379;28;20039;-63
2022/06/12 05:18:13;;;;;;;11.35;4.03;;;;;;;16.20;58.04;102214.50;5085330;28;20111;-64
2022/06/12 05:20:43;;;;;;;11.18;3.78;;;;;;;16.24;58.28;102215.66;5080757;28;20107;-63
2022/06/12 05:23:09;;;;;;;13.65;4.40;;;;;;;16.35;58.31;102211.91;5072073;28;20028;-64
2022/06/12 05:25:35;;;;;;;14.35;3.90;;;;;;;16.38;58.35;102214.16;5096990;28;20042;-63
2022/06/12 05:28:03;;;;;;;11.10;3.63;;;;;;;16.44;58.17;102199.13;5096628;28;20162;-63
2022/06/12 05:30:33;;;;;;;9.02;4.07;;;;;;;16.49;58.06;102203.94;5091494;28;20028;-63
2022/06/12 05:33:01;;;;;;;15.00;4.13;;;;;;;16.59;57.97;102200.44;5092951;28;20970;-63
2022/06/12 05:35:29;;;;;;;15.25;4.10;;;;;;;16.58;58.32;102209.94;5092625;28;20073;-64
2022/06/12 05:37:55;;;;;;;13.65;4.30;;;;;;;16.72;57.93;102216.88;5092919;28;20024;-64
2022/06/12 05:40:26;;;;;;;17.17;4.85;;;;;;;16.72;58.00;102207.59;5093486;28;20028;-63
2022/06/12 05:42:52;;;;;;;11.68;4.20;;;;;;;16.85;57.76;102199.66;5080261;28;20038;-63
2022/06/12 05:45:22;;;;;;;13.80;4.30;;;;;;;16.88;57.90;102210.34;5096501;28;20020;-63
2022/06/12 05:48:09;;;;;;;15.80;4.80;;;;;;;16.99;57.47;102211.34;5103928;28;20024;-63
2022/06/12 05:50:45;;;;;;;13.88;3.90;;;;;;;17.02;57.13;102209.97;5101440;28;20065;-63
2022/06/12 05:53:16;;;;;;;10.50;4.30;;;;;;;17.05;57.53;102210.25;5095382;28;20165;-63
2022/06/12 05:55:42;;;;;;;14.75;4.85;;;;;;;17.10;57.50;102213.16;5080740;28;20032;-64
2022/06/12 05:58:17;;;;;;;18.00;4.47;;;;;;;17.25;57.47;102218.06;5103106;28;20035;-64
2022/06/12 06:00:43;;;;;;;8.82;3.90;;;;;;;17.28;57.70;102220.31;5103785;28;20032;-64
2022/06/12 06:03:09;;;;;;;14.63;4.68;;;;;;;17.34;57.54;102213.66;5086551;28;20029;-64
2022/06/12 06:05:36;;;;;;;18.38;4.60;;;;;;;17.34;57.52;102215.63;5090494;28;20063;-63
2022/06/12 06:08:02;;;;;;;12.90;3.72;;;;;;;17.45;57.60;102214.63;5082447;28;20024;-63
2022/06/12 06:10:30;;;;;;;15.80;4.43;;;;;;;17.48;57.90;102211.25;5091628;28;20395;-63
2022/06/12 06:13:01;;;;;;;13.18;4.68;;;;;;;17.52;57.84;102220.84;5087826;28;20080;-63
2022/06/12 06:15:27;;;;;;;18.02;4.45;;;;;;;17.60;58.04;102223.16;5110422;28;20161;-63
2022/06/12 06:17:53;;;;;;;11.52;4.07;;;;;;;17.63;58.17;102222.63;5086575;28;21094;-64
2022/06/12 06:20:24;;;;;;;15.10;4.03;;;;;;;17.72;58.17;102224.94;5080918;28;20012;-64
2022/06/12 06:22:52;;;;;;;17.65;4.60;;;;;;;17.77;58.35;102231.50;5075196;28;20166;-64
2022/06/12 06:25:20;;;;;;;16.70;4.70;;;;;;;17.82;58.52;102219.44;5089448;28;20151;-63
2022/06/12 06:27:45;;;;;;;13.23;4.47;;;;;;;17.92;58.81;102222.34;5075875;28;20039;-64
2022/06/12 06:30:12;;;;;;;17.27;5.03;;;;;;;17.95;59.40;102218.97;5089281;28;20028;-64
2022/06/12 06:32:37;;;;;;;21.52;5.43;;;;;;;18.02;59.23;102230.84;5075912;28;20043;-63
2022/06/12 06:35:04;;;;;;;17.08;4.95;;;;;;;18.15;59.50;102232.31;5086784;28;20418;-64
2022/06/12 06:37:34;;;;;;;16.23;5.05;;;;;;;18.17;59.28;102232.91;5074702;28;20039;-64
2022/06/12 06:39:59;;;;;;;17.00;4.38;;;;;;;18.24;59.33;102233.53;5071245;28;20056;-62
2022/06/12 06:42:24;;;;;;;18.17;5.55;;;;;;;18.22;59.12;102230.13;5078113;28;20032;-63
2022/06/12 06:47:36;;;;;;;18.55;4.75;;;;;;;18.20;59.53;102243.63;5084630;28;20084;-62
2022/06/12 06:50:03;;;;;;;18.55;5.40;;;;;;;18.15;59.60;102238.78;5089670;28;20071;-64
2022/06/12 06:52:28;;;;;;;20.63;4.95;;;;;;;18.20;59.88;102239.97;5088905;28;20036;-63
2022/06/12 06:54:54;;;;;;;18.45;5.00;;;;;;;18.24;59.71;102239.16;5075435;28;20035;-66
2022/06/12 06:57:19;;;;;;;18.05;5.10;;;;;;;18.24;59.50;102244.78;5096844;28;20030;-64
2022/06/12 06:59:44;;;;;;;16.45;5.05;;;;;;;18.23;59.55;102240.25;5087970;28;20025;-66
2022/06/12 07:02:13;;;;;;;15.50;5.15;;;;;;;18.28;59.44;102239.47;5083334;28;20039;-65
2022/06/12 07:04:40;;;;;;;23.30;5.38;;;;;;;18.43;60.01;102238.69;5097393;28;20032;-67
2022/06/12 07:07:08;;;;;;;20.33;6.00;;;;;;;18.49;59.87;102240.41;5091005;28;20148;-64
2022/06/12 07:09:33;;;;;;;14.80;5.30;;;;;;;18.57;59.55;102242.72;5092566;28;20032;-66
2022/06/12 07:11:59;;;;;;;15.55;4.70;;;;;;;18.60;59.37;102244.97;5090450;28;20552;-67
2022/06/12 07:14:25;;;;;;;19.92;5.38;;;;;;;18.69;59.78;102240.50;5089509;28;20069;-64
2022/06/12 07:16:50;;;;;;;24.13;5.30;;;;;;;18.75;59.60;102247.91;5082012;28;20072;-66
2022/06/12 07:19:15;;;;;;;15.32;4.90;;;;;;;18.79;59.39;102242.56;5113033;28;20020;-65
2022/06/12 07:21:41;;;;;;;16.90;5.45;;;;;;;18.76;59.09;102235.53;5088710;28;20375;-63
2022/06/12 07:24:07;;;;;;;16.63;4.95;;;;;;;18.86;59.17;102246.81;5082098;28;20123;-63
2022/06/12 07:26:40;;;;;;;15.80;5.45;;;;;;;18.85;59.12;102242.31;5078017;28;20036;-63
2022/06/12 07:29:05;;;;;;;22.02;5.63;;;;;;;18.83;58.98;102243.72;5084748;28;20438;-63
2022/06/12 07:31:32;;;;;;;19.80;5.40;;;;;;;18.83;58.78;102241.75;5084213;28;20024;-64
2022/06/12 07:33:58;;;;;;;16.67;5.43;;;;;;;18.81;58.60;102243.13;5105050;28;20036;-64
2022/06/12 07:36:24;;;;;;;22.58;5.78;;;;;;;18.88;58.67;102244.56;5113052;28;20486;-64
2022/06/12 07:38:50;;;;;;;21.30;6.03;;;;;;;18.94;58.55;102245.41;5080159;28;20034;-64
2022/06/12 07:41:17;;;;;;;21.25;5.93;;;;;;;18.99;58.59;102233.38;5107099;27;20035;-64
2022/06/12 07:43:43;;;;;;;19.25;5.97;;;;;;;19.02;58.35;102247.72;5104021;28;20051;-64
2022/06/12 07:46:12;;;;;;;19.52;5.05;;;;;;;19.11;58.11;102243.25;5099153;28;20031;-64
2022/06/12 07:48:38;;;;;;;18.77;5.43;;;;;;;19.20;58.21;102245.53;5110699;28;20035;-64
2022/06/12 07:51:10;;;;;;;14.57;5.28;;;;;;;19.30;58.01;102243.59;5107460;28;20024;-64
2022/06/12 07:53:36;;;;;;;15.95;6.05;;;;;;;19.43;57.49;102246.97;5092002;28;20421;-64
2022/06/12 07:56:03;;;;;;;17.13;5.13;;;;;;;19.51;57.13;102254.88;5092893;28;20035;-64
2022/06/12 07:58:28;;;;;;;13.75;4.85;;;;;;;19.51;56.91;102243.63;5093155;28;20031;-64
2022/06/12 08:00:57;;;;;;;15.35;5.25;;;;;;;19.59;56.98;102248.69;5092572;28;20035;-64
2022/06/12 08:03:23;;;;;;;18.77;5.20;;;;;;;19.70;57.24;102256.06;5072315;28;20054;-64
2022/06/12 08:05:49;;;;;;;12.98;4.60;;;;;;;19.76;55.98;102249.28;5072678;28;20644;-64
2022/06/12 08:08:15;;;;;;;16.20;5.05;;;;;;;19.78;56.49;102247.03;5073029;28;20505;-65
2022/06/12 08:10:40;;;;;;;19.17;4.97;;;;;;;19.76;56.30;102243.66;5075379;28;20122;-64
2022/06/12 08:13:10;;;;;;;17.75;5.40;;;;;;;19.83;56.63;102249.84;5092988;28;20078;-64
2022/06/12 08:15:36;;;;;;;12.50;4.80;;;;;;;19.81;55.68;102251.28;5092934;28;20090;-64
2022/06/12 08:18:05;;;;;;;21.80;5.60;;;;;;;19.79;56.37;102253.53;5110676;28;20031;-64
2022/06/12 08:20:33;;;;;;;13.52;5.00;;;;;;;19.75;55.16;102250.41;5113295;28;20031;-64
2022/06/12 08:23:26;;;;;;;16.63;4.60;;;;;;;19.80;55.45;102255.19;5113193;28;20028;-64
2022/06/12 08:25:55;;;;;;;17.00;5.07;;;;;;;19.74;55.91;102242.25;5112452;28;20065;-65
2022/06/12 08:28:23;;;;;;;18.33;5.13;;;;;;;19.71;55.63;102246.47;5082140;28;20106;-63
2022/06/12 08:30:49;;;;;;;20.65;5.43;;;;;;;19.71;55.60;102245.63;5093640;28;20031;-63
2022/06/12 08:33:14;;;;;;;17.70;5.40;;;;;;;19.67;55.37;102239.72;5103448;28;20036;-63
2022/06/12 08:35:40;;;;;;;18.35;5.13;;;;;;;19.66;55.86;102254.94;5103984;28;20066;-63
2022/06/12 08:38:06;;;;;;;18.33;6.07;;;;;;;19.66;56.14;102249.28;5097917;28;20020;-63
2022/06/12 08:40:46;;;;;;;16.42;5.10;;;;;;;19.70;55.95;102247.59;5108433;28;20119;-63
2022/06/12 08:43:40;;;;;;;17.58;5.55;;;;;;;19.72;55.73;102247.31;5099898;28;20028;-63
2022/06/12 08:46:21;;;;;;;19.55;5.72;;;;;;;19.73;56.14;102240.53;5098676;28;20042;-63
2022/06/12 08:48:51;;;;;;;21.38;5.25;;;;;;;19.81;55.93;102240.84;5086665;28;20086;-63
2022/06/12 08:51:37;;;;;;;16.77;5.35;;;;;;;19.77;54.91;102234.09;5112651;28;20028;-63
2022/06/12 08:54:23;;;;;;;14.45;5.55;;;;;;;19.84;55.40;102236.59;5096929;28;20118;-63
2022/06/12 08:56:59;;;;;;;16.30;5.18;;;;;;;19.88;54.64;102234.06;5080342;28;20024;-63
2022/06/12 08:59:35;;;;;;;14.15;4.75;;;;;;;19.85;54.43;102230.72;5101590;28;20027;-64
2022/06/12 09:02:04;;;;;;;14.07;4.65;;;;;;;19.92;53.79;102230.41;5106109;28;20476;-64
2022/06/12 09:04:30;;;;;;;13.75;4.55;;;;;;;20.05;53.83;102223.38;5110618;28;20030;-64
2022/06/12 09:07:02;;;;;;;17.15;5.80;;;;;;;20.15;53.97;102223.31;5106209;28;20491;-64
2022/06/12 09:09:39;;;;;;;16.75;5.35;;;;;;;20.23;53.53;102228.38;5101361;28;20382;-64
2022/06/12 09:12:12;;;;;;;14.48;4.18;;;;;;;20.28;52.56;102228.41;5096997;28;20027;-64
2022/06/12 09:14:59;;;;;;;13.98;4.45;;;;;;;20.37;52.35;102213.72;5101295;28;20054;-64
2022/06/12 09:17:40;;;;;;;13.23;4.22;;;;;;;20.58;53.25;102221.00;5094774;28;20360;-63
2022/06/12 09:20:18;;;;;;;9.98;3.50;;;;;;;20.67;52.90;102213.66;5076693;28;20028;-65
2022/06/12 09:22:55;;;;;;;8.05;3.30;;;;;;;20.77;52.48;102222.03;5089480;28;20035;-65
2022/06/12 09:25:31;;;;;;;13.18;3.83;;;;;;;20.82;50.86;102215.53;5086304;28;20074;-65
2022/06/12 09:27:59;;;;;;;11.65;3.60;;;;;;;20.96;51.98;102204.47;5081907;28;20024;-65
2022/06/12 09:30:36;;;;;;;8.43;3.15;;;;;;;21.06;52.09;102204.41;5073159;28;20115;-66
2022/06/12 09:33:11;;;;;;;14.43;3.88;;;;;;;21.12;50.66;102211.72;5089356;28;20039;-66
2022/06/12 09:36:01;;;;;;;14.30;4.60;;;;;;;21.19;50.92;102217.03;5083861;28;20120;-65
2022/06/12 09:39:01;;;;;;;10.55;3.83;;;;;;;21.29;51.39;102214.13;5088299;28;20043;-65
2022/06/12 09:41:43;;;;;;;12.75;5.40;;;;;;;21.25;50.50;102211.06;5104022;28;20382;-66
2022/06/12 09:44:17;;;;;;;8.93;3.60;;;;;;;21.32;50.29;102211.59;5092183;28;20032;-65
2022/06/12 09:46:48;;;;;;;12.65;4.20;;;;;;;21.41;50.10;102213.81;5106024;28;20704;-66
2022/06/12 09:49:38;;;;;;;6.53;3.50;;;;;;;21.43;49.98;102211.56;5101841;28;20044;-66
2022/06/12 09:52:34;;;;;;;11.18;3.55;;;;;;;21.33;49.77;102207.63;5085202;28;20038;-65
2022/06/12 09:55:03;;;;;;;15.07;3.90;;;;;;;21.26;48.05;102209.06;5095693;28;20034;-65
2022/06/12 09:57:40;;;;;;;10.93;3.40;;;;;;;21.28;49.15;102210.47;5089789;28;20339;-66
2022/06/12 10:00:12;;;;;;;10.68;3.67;;;;;;;21.29;48.11;102212.16;5085756;28;20378;-65
2022/06/12 10:02:46;;;;;;;9.70;3.60;;;;;;;21.30;48.93;102219.50;5094579;28;20027;-65
2022/06/12 10:05:29;;;;;;;11.13;3.50;;;;;;;21.36;48.92;102214.69;5105369;28;20023;-65
2022/06/12 10:08:08;;;;;;;10.98;4.15;;;;;;;21.35;48.59;102200.88;5106773;28;20410;-65
2022/06/12 10:10:43;;;;;;;9.18;2.92;;;;;;;21.32;48.69;102200.31;5090583;28;20073;-65
2022/06/12 10:13:13;;;;;;;10.68;3.22;;;;;;;21.35;49.04;102201.72;5103426;28;20059;-65
2022/06/12 10:15:50;;;;;;;9.43;3.20;;;;;;;21.36;48.97;102202.56;5101532;28;20031;-65
2022/06/12 10:18:28;;;;;;;8.77;3.35;;;;;;;21.34;48.84;102200.03;5093181;28;20030;-65
2022/06/12 10:21:00;;;;;;;9.98;2.97;;;;;;;21.35;48.26;102193.25;5079581;28;20027;-65
2022/06/12 10:23:26;;;;;;;9.50;3.38;;;;;;;21.28;48.82;102195.50;5100887;28;20376;-65
2022/06/12 10:25:58;;;;;;;11.00;3.33;;;;;;;21.21;48.28;102195.84;5099624;28;20030;-65
2022/06/12 10:28:34;;;;;;;12.70;3.38;;;;;;;21.19;48.93;102192.47;5091070;28;20047;-65
2022/06/12 10:31:11;;;;;;;10.43;3.60;;;;;;;21.17;49.41;102194.72;5081006;28;20032;-65
2022/06/12 10:33:42;;;;;;;8.60;3.10;;;;;;;21.12;48.90;102196.75;5091699;28;20485;-65
2022/06/12 10:36:17;;;;;;;10.00;2.87;;;;;;;21.16;49.44;102193.06;5110601;28;20059;-65
2022/06/12 10:38:42;;;;;;;12.10;2.97;;;;;;;21.24;49.02;102194.41;5109981;28;20309;-65
2022/06/12 10:41:26;;;;;;;13.95;3.33;;;;;;;21.25;48.84;102181.97;5108005;28;20048;-65
2022/06/12 10:43:56;;;;;;;10.68;3.17;;;;;;;21.39;48.78;102179.38;5110843;28;20027;-64
2022/06/12 10:46:29;;;;;;;7.30;2.53;;;;;;;21.49;48.01;102180.13;5109833;28;20024;-65
2022/06/12 10:49:15;;;;;;;10.38;3.15;;;;;;;21.52;46.98;102185.19;5108709;28;20043;-65
2022/06/12 10:51:41;;;;;;;10.30;3.08;;;;;;;21.61;46.75;102182.56;5093632;28;20032;-65
2022/06/12 10:54:22;;;;;;;11.02;3.03;;;;;;;21.66;47.24;102185.38;5093390;28;20065;-65
2022/06/12 10:57:03;;;;;;;11.67;2.73;;;;;;;21.69;46.61;102184.78;5108861;28;20035;-65
2022/06/12 10:59:49;;;;;;;15.85;2.80;;;;;;;21.79;45.53;102181.84;5113408;28;20041;-64
2022/06/12 11:02:42;;;;;;;8.68;2.70;;;;;;;21.96;46.39;102175.75;5114053;28;20019;-64
2022/06/12 11:05:29;;;;;;;11.25;2.97;;;;;;;22.09;46.43;102177.03;5101962;27;20036;-65
2022/06/12 11:08:13;;;;;;;6.75;2.45;;;;;;;22.19;45.78;102165.63;5105843;28;20143;-64
2022/06/12 11:10:53;;;;;;;11.27;2.97;;;;;;;22.29;46.04;102168.34;5102153;28;20578;-66
2022/06/12 11:14:03;;;;;;;11.00;3.00;;;;;;;22.28;46.73;102179.94;5087355;28;20032;-65
2022/06/12 11:16:37;;;;;;;10.73;3.22;;;;;;;22.16;46.30;102171.88;5097145;28;20038;-66
2022/06/12 11:19:41;;;;;;;10.38;3.10;;;;;;;22.09;46.21;102177.03;5086823;28;20028;-66
2022/06/12 11:22:16;;;;;;;7.97;2.95;;;;;;;22.04;46.44;102174.25;5086148;28;20040;-66
2022/06/12 11:25:19;;;;;;;9.02;2.95;;;;;;;22.08;46.79;102169.69;5087824;28;20455;-67
2022/06/12 11:28:26;;;;;;;9.73;3.28;;;;;;;21.98;47.43;102172.63;5081356;28;20544;-66
2022/06/12 11:31:15;;;;;;;11.18;3.00;;;;;;;22.06;47.19;102164.34;5090225;28;21568;-68
2022/06/12 11:33:58;;;;;;;12.23;2.80;;;;;;;22.18;46.40;102168.78;5087772;28;20170;-64
2022/06/12 11:36:46;;;;;;;10.95;3.13;;;;;;;22.15;46.30;102175.03;5077785;28;21564;-66
2022/06/12 11:39:20;;;;;;;9.70;3.30;;;;;;;22.04;45.59;102162.94;5086411;28;20407;-67
2022/06/12 11:42:30;;;;;;;9.98;3.13;;;;;;;22.05;46.45;102164.66;5086565;28;20028;-68
2022/06/12 11:45:31;;;;;;;7.22;2.80;;;;;;;22.10;46.43;102155.25;5088139;28;20047;-66
2022/06/12 11:48:14;;;;;;;11.30;2.83;;;;;;;22.19;45.15;102150.66;5088448;28;20049;-67
2022/06/12 11:50:52;;;;;;;10.70;2.75;;;;;;;22.28;44.01;102152.53;5087689;28;20035;-66
2022/06/12 11:53:23;;;;;;;10.93;2.78;;;;;;;22.34;43.92;102144.81;5089458;28;20065;-67
2022/06/12 11:55:57;;;;;;;8.98;2.42;;;;;;;22.36;42.82;102144.50;5101732;28;20031;-64
2022/06/12 11:58:59;;;;;;;6.65;2.67;;;;;;;22.41;43.92;102141.63;5108340;28;20379;-63
2022/06/12 12:01:31;;;;;;;11.07;2.90;;;;;;;22.46;44.27;102150.06;5099369;28;20035;-63